Time;durP1;ratioP1;P1;durP2;ratioP2;P2;SDS_P1;SDS_P2;PMS_P1;PMS_P2;Temp;Humidity;BMP_temperature;BMP_pressure;BME280_temperature;BME280_humidity;BME280_pressure;Samples;Min_cycle;Max_cycle;Signal;HPM_P1;HPM_P2
2022/08/13 00:01:33;;;;;;;4.87;2.13;;;16.40;10.30;;;;;;6191410;23;20419;-86
2022/08/13 00:04:01;;;;;;;10.63;2.60;;;16.50;11.90;;;;;;6191291;23;20443;-87
2022/08/13 00:09:13;;;;;;;5.23;2.10;;;16.40;10.90;;;;;;6190724;23;20413;-87
2022/08/13 00:14:31;;;;;;;4.67;2.07;;;16.30;13.00;;;;;;6191188;23;20927;-87
2022/08/13 00:16:58;;;;;;;7.80;1.90;;;16.20;11.60;;;;;;6191961;23;20602;-87
2022/08/13 00:19:26;;;;;;;7.00;2.47;;;16.40;10.90;;;;;;6190733;23;20429;-87
2022/08/13 00:21:54;;;;;;;5.50;2.30;;;16.40;11.00;;;;;;6191188;23;20476;-87
2022/08/13 00:24:22;;;;;;;5.73;2.27;;;16.40;9.60;;;;;;6191451;23;20425;-87
2022/08/13 00:26:48;;;;;;;4.50;2.03;;;16.40;9.70;;;;;;6190921;23;20441;-87
2022/08/13 00:29:15;;;;;;;5.63;2.00;;;16.50;8.50;;;;;;6191827;23;20414;-88
2022/08/13 00:31:44;;;;;;;7.63;1.90;;;16.60;7.70;;;;;;6191721;23;20413;-87
2022/08/13 00:34:11;;;;;;;5.07;1.90;;;17.10;6.40;;;;;;6190075;23;20437;-87
2022/08/13 00:36:38;;;;;;;5.20;2.10;;;17.20;5.90;;;;;;6201218;23;20395;-87
2022/08/13 00:39:07;;;;;;;5.03;1.67;;;17.50;4.60;;;;;;6190436;23;20421;-87
2022/08/13 00:41:38;;;;;;;5.93;2.03;;;17.70;3.60;;;;;;6190943;23;20416;-87
2022/08/13 00:44:06;;;;;;;6.53;2.30;;;17.70;4.20;;;;;;6190695;23;20433;-87
2022/08/13 00:46:33;;;;;;;9.93;2.30;;;17.60;5.30;;;;;;6200206;23;20413;-87
2022/08/13 00:49:01;;;;;;;5.93;2.20;;;17.30;6.30;;;;;;6190696;23;20925;-87
2022/08/13 00:51:29;;;;;;;4.73;1.90;;;17.20;7.70;;;;;;6190352;23;20423;-87
2022/08/13 00:53:58;;;;;;;8.83;2.03;;;16.90;7.20;;;;;;6190968;23;20432;-87
2022/08/13 00:56:25;;;;;;;6.53;1.87;;;16.90;8.00;;;;;;6200799;23;20856;-87
2022/08/13 00:58:56;;;;;;;6.70;2.10;;;16.70;9.80;;;;;;6190407;23;20426;-87
2022/08/13 01:01:25;;;;;;;5.57;1.90;;;16.50;10.30;;;;;;6191384;23;20457;-87
2022/08/13 01:03:52;;;;;;;4.40;1.50;;;16.30;10.90;;;;;;6191389;23;21030;-87
2022/08/13 01:06:19;;;;;;;7.10;2.20;;;16.10;12.10;;;;;;6191202;23;20405;-87
2022/08/13 01:08:46;;;;;;;7.20;1.83;;;15.90;12.10;;;;;;6190786;23;20441;-87
2022/08/13 01:11:14;;;;;;;5.00;1.97;;;15.80;13.40;;;;;;6191680;23;20417;-87
2022/08/13 01:13:44;;;;;;;6.47;2.53;;;15.80;13.30;;;;;;6191591;23;20433;-87
2022/08/13 01:16:14;;;;;;;5.77;2.47;;;15.80;13.70;;;;;;6192153;23;20754;-87
2022/08/13 01:18:44;;;;;;;5.93;2.20;;;15.80;14.30;;;;;;6192190;23;20423;-87
2022/08/13 01:21:15;;;;;;;5.13;2.03;;;15.70;15.10;;;;;;6193283;23;20413;-87
2022/08/13 01:23:47;;;;;;;7.60;2.30;;;15.70;15.40;;;;;;6193107;23;20519;-87
2022/08/13 01:26:16;;;;;;;8.23;2.50;;;15.60;16.20;;;;;;6192316;23;20393;-87
2022/08/13 01:28:43;;;;;;;8.73;2.33;;;15.40;16.40;;;;;;6194628;23;20437;-87
2022/08/13 01:31:12;;;;;;;5.47;2.10;;;15.30;17.20;;;;;;6194026;23;20417;-87
2022/08/13 01:33:40;;;;;;;6.87;2.37;;;15.20;18.30;;;;;;6193993;23;20433;-87
2022/08/13 01:36:09;;;;;;;5.67;2.57;;;15.00;18.90;;;;;;6193868;23;20785;-87
2022/08/13 01:38:36;;;;;;;6.23;2.50;;;15.00;19.80;;;;;;6193678;23;20896;-87
2022/08/13 01:41:08;;;;;;;5.00;2.17;;;15.00;20.20;;;;;;6194317;23;20904;-87
2022/08/13 01:43:38;;;;;;;9.57;2.83;;;14.90;20.00;;;;;;6194307;23;20437;-87
2022/08/13 01:46:06;;;;;;;6.00;3.03;;;15.00;21.00;;;;;;6194361;23;20441;-87
2022/08/13 01:51:22;;;;;;;5.50;2.60;;;14.90;21.20;;;;;;6194441;23;20447;-87
2022/08/13 01:53:50;;;;;;;10.67;2.87;;;14.90;22.50;;;;;;6204655;23;20429;-87
2022/08/13 01:56:21;;;;;;;6.37;2.70;;;14.90;21.90;;;;;;6193990;23;20409;-87
2022/08/13 01:58:50;;;;;;;7.20;2.47;;;14.90;22.30;;;;;;6193876;23;20421;-87
2022/08/13 02:01:17;;;;;;;5.17;2.50;;;14.90;21.50;;;;;;6193898;23;20409;-87
2022/08/13 02:03:48;;;;;;;5.13;2.27;;;14.80;21.60;;;;;;6193534;23;20447;-87
2022/08/13 02:06:15;;;;;;;6.33;3.13;;;14.80;22.10;;;;;;6203299;23;20401;-87
2022/08/13 02:08:43;;;;;;;6.43;3.23;;;14.70;23.10;;;;;;6194001;23;20419;-87
2022/08/13 02:11:10;;;;;;;6.07;2.70;;;14.60;23.00;;;;;;6193520;23;20413;-87
2022/08/13 02:13:39;;;;;;;6.23;3.20;;;14.70;23.20;;;;;;6193331;23;20439;-87
2022/08/13 02:16:07;;;;;;;7.23;3.00;;;14.70;23.20;;;;;;6193512;23;20409;-87
2022/08/13 02:18:33;;;;;;;5.70;2.77;;;14.70;23.80;;;;;;6192893;23;20437;-87
2022/08/13 02:21:02;;;;;;;10.13;2.90;;;14.70;23.20;;;;;;6193067;23;20413;-87
2022/08/13 02:23:32;;;;;;;6.40;3.77;;;14.70;24.60;;;;;;6193280;23;20433;-87
2022/08/13 02:26:00;;;;;;;6.87;2.83;;;14.60;24.20;;;;;;6192913;23;20420;-87
2022/08/13 02:28:30;;;;;;;5.77;2.67;;;14.60;24.80;;;;;;6193534;23;20409;-87
2022/08/13 02:30:58;;;;;;;5.60;2.80;;;14.50;24.90;;;;;;6194106;23;20397;-87
2022/08/13 02:33:26;;;;;;;13.27;3.00;;;14.50;25.50;;;;;;6193864;23;20433;-87
2022/08/13 02:35:54;;;;;;;5.50;3.17;;;14.40;25.50;;;;;;6193481;23;20413;-87
2022/08/13 02:38:21;;;;;;;5.77;2.80;;;14.40;24.60;;;;;;6193806;23;20436;-87
2022/08/13 02:43:33;;;;;;;7.10;3.83;;;14.60;23.10;;;;;;6190453;23;20804;-86
2022/08/13 02:46:01;;;;;;;8.93;3.27;;;14.90;21.50;;;;;;6202075;23;20401;-86
2022/08/13 02:48:33;;;;;;;10.27;3.30;;;15.10;21.40;;;;;;6203455;23;20467;-87
2022/08/13 02:50:59;;;;;;;5.63;3.37;;;14.90;21.00;;;;;;6193235;23;20405;-87
2022/08/13 02:53:26;;;;;;;5.90;3.10;;;14.90;21.10;;;;;;6192344;23;20433;-87
2022/08/13 02:55:53;;;;;;;10.60;3.50;;;14.90;21.20;;;;;;6193379;23;20504;-87
2022/08/13 02:58:20;;;;;;;6.20;3.33;;;15.00;23.30;;;;;;6193587;23;20441;-87
2022/08/13 03:00:49;;;;;;;6.40;3.57;;;15.00;20.80;;;;;;6194400;23;20425;-87
2022/08/13 03:03:21;;;;;;;6.70;3.43;;;14.80;21.10;;;;;;6193526;23;20504;-87
2022/08/13 03:05:48;;;;;;;9.07;3.43;;;14.80;20.70;;;;;;6200873;23;20389;-82
2022/08/13 03:08:15;;;;;;;7.03;3.70;;;14.80;22.10;;;;;;6190250;23;20412;-81
2022/08/13 03:10:42;;;;;;;7.57;3.93;;;15.00;21.70;;;;;;6199705;23;20417;-81
2022/08/13 03:13:16;;;;;;;7.37;3.63;;;14.90;23.40;;;;;;6189674;23;20931;-81
2022/08/13 03:15:44;;;;;;;9.20;3.27;;;14.70;22.30;;;;;;6189199;23;20775;-80
2022/08/13 03:18:11;;;;;;;15.17;4.33;;;14.70;21.90;;;;;;6189652;23;20440;-80
2022/08/13 03:20:39;;;;;;;11.77;3.80;;;14.60;22.20;;;;;;6188340;23;20741;-81
2022/08/13 03:23:07;;;;;;;6.00;4.03;;;14.70;23.20;;;;;;6189940;23;20437;-81
2022/08/13 03:25:35;;;;;;;8.13;3.80;;;14.60;23.80;;;;;;6188479;23;20409;-81
2022/08/13 03:28:03;;;;;;;6.90;3.97;;;14.60;23.10;;;;;;6189521;23;20436;-81
2022/08/13 03:30:34;;;;;;;6.27;3.70;;;14.60;23.20;;;;;;6190151;23;20409;-81
2022/08/13 03:33:06;;;;;;;9.10;3.63;;;14.50;24.40;;;;;;6188617;23;20432;-80
2022/08/13 03:35:33;;;;;;;7.50;3.90;;;14.50;24.90;;;;;;6189877;23;20950;-81
2022/08/13 03:38:01;;;;;;;10.03;4.27;;;14.30;25.00;;;;;;6188991;23;20411;-81
2022/08/13 03:41:00;;;;;;;7.70;4.07;;;14.30;25.80;;;;;;6194112;23;20440;-80
2022/08/13 03:43:16;;;;;;;7.93;3.80;;;14.10;25.10;;;;;;6194791;23;20435;-80
2022/08/13 03:45:44;;;;;;;10.43;4.43;;;14.00;25.30;;;;;;6187851;23;20736;-80
2022/08/13 03:48:13;;;;;;;6.63;4.00;;;14.10;25.70;;;;;;6187742;23;20420;-79
2022/08/13 03:50:40;;;;;;;6.63;4.47;;;14.00;25.30;;;;;;6187580;23;20415;-80
2022/08/13 03:53:09;;;;;;;7.30;3.93;;;14.00;27.70;;;;;;6188194;23;20433;-80
2022/08/13 03:55:37;;;;;;;8.93;4.00;;;14.00;25.90;;;;;;6186606;23;20417;-80
2022/08/13 03:58:05;;;;;;;8.47;4.77;;;13.90;27.00;;;;;;6188048;23;20433;-80
2022/08/13 04:00:33;;;;;;;8.17;4.00;;;14.00;26.80;;;;;;6197231;23;20421;-79
2022/08/13 04:03:02;;;;;;;6.63;4.43;;;13.90;26.30;;;;;;6186666;23;20439;-80
2022/08/13 04:05:30;;;;;;;7.53;4.37;;;13.90;27.70;;;;;;6187803;23;20890;-80
2022/08/13 04:07:56;;;;;;;9.40;4.07;;;13.80;27.30;;;;;;6187044;23;20531;-80
2022/08/13 04:10:25;;;;;;;8.80;4.60;;;13.80;28.40;;;;;;6186844;23;20413;-78
2022/08/13 04:12:51;;;;;;;10.30;4.33;;;14.00;29.80;;;;;;6187709;23;20423;-80
2022/08/13 04:15:18;;;;;;;10.60;4.93;;;14.00;29.20;;;;;;6186149;23;20480;-80
2022/08/13 04:17:45;;;;;;;7.50;4.30;;;13.90;27.80;;;;;;6187611;23;20412;-80
2022/08/13 04:20:12;;;;;;;8.87;4.73;;;14.00;27.10;;;;;;6186600;23;20417;-79
2022/08/13 04:22:39;;;;;;;8.07;4.47;;;13.90;29.10;;;;;;6187290;23;20912;-80
2022/08/13 04:25:07;;;;;;;6.70;4.03;;;13.90;28.70;;;;;;6187232;23;20424;-80
2022/08/13 04:27:38;;;;;;;13.83;5.33;;;14.00;29.80;;;;;;6187100;23;20420;-80
2022/08/13 04:30:06;;;;;;;13.07;6.13;;;14.00;29.70;;;;;;6187828;23;20428;-80
2022/08/13 04:32:41;;;;;;;7.40;4.47;;;14.00;29.80;;;;;;6187665;23;20420;-80
2022/08/13 04:35:09;;;;;;;6.70;4.57;;;14.00;29.80;;;;;;6187865;23;20400;-80
2022/08/13 04:37:36;;;;;;;6.70;4.30;;;14.00;29.80;;;;;;6187290;23;20915;-80
2022/08/13 04:40:05;;;;;;;9.97;4.50;;;14.20;30.00;;;;;;6187052;23;20898;-81
2022/08/13 04:42:49;;;;;;;8.77;4.80;;;14.10;29.90;;;;;;6187431;23;20413;-80
2022/08/13 04:45:15;;;;;;;8.13;4.67;;;14.10;27.90;;;;;;6186731;23;20397;-80
2022/08/13 04:47:42;;;;;;;7.40;5.27;;;14.10;28.40;;;;;;6187563;23;20420;-80
2022/08/13 04:50:10;;;;;;;7.00;4.90;;;14.10;28.90;;;;;;6189867;23;20475;-80
2022/08/13 04:52:37;;;;;;;8.70;5.30;;;14.20;28.80;;;;;;6188354;23;20477;-80
2022/08/13 04:55:04;;;;;;;6.80;4.43;;;14.10;28.20;;;;;;6189600;23;20480;-80
2022/08/13 04:57:31;;;;;;;7.10;4.20;;;14.20;28.70;;;;;;6189382;23;20417;-80
2022/08/13 05:00:02;;;;;;;9.30;4.90;;;14.40;28.40;;;;;;6190294;23;20437;-79
2022/08/13 05:02:29;;;;;;;7.90;3.87;;;14.50;30.00;;;;;;6190071;23;20928;-80
2022/08/13 05:04:58;;;;;;;10.50;4.20;;;14.50;28.80;;;;;;6189134;23;20440;-81
2022/08/13 05:07:26;;;;;;;10.27;4.17;;;14.60;27.90;;;;;;6198125;23;20416;-80
2022/08/13 05:09:53;;;;;;;7.50;4.03;;;14.70;26.80;;;;;;6188152;23;20409;-80
2022/08/13 05:12:19;;;;;;;9.07;4.60;;;14.90;26.30;;;;;;6188907;23;20986;-80
2022/08/13 05:14:46;;;;;;;8.37;4.10;;;14.90;27.00;;;;;;6188641;23;20444;-80
2022/08/13 05:17:14;;;;;;;6.87;4.77;;;14.90;27.80;;;;;;6189284;23;20725;-81
2022/08/13 05:19:41;;;;;;;13.20;4.67;;;15.00;28.30;;;;;;6188880;23;20437;-80
2022/08/13 05:22:08;;;;;;;10.93;4.80;;;15.10;27.30;;;;;;6189458;23;20417;-80
2022/08/13 05:24:37;;;;;;;8.37;4.47;;;15.20;28.60;;;;;;6189372;23;20442;-80
2022/08/13 05:27:04;;;;;;;8.00;4.87;;;15.20;27.90;;;;;;6189091;23;20492;-79
2022/08/13 05:29:31;;;;;;;7.97;3.83;;;15.30;27.30;;;;;;6189178;23;20420;-80
2022/08/13 05:31:58;;;;;;;7.53;4.03;;;15.50;27.10;;;;;;6188517;23;20892;-80
2022/08/13 05:34:28;;;;;;;8.60;4.47;;;15.90;27.30;;;;;;6189154;23;20440;-80
2022/08/13 05:36:55;;;;;;;7.00;3.70;;;16.70;26.50;;;;;;6199102;23;20484;-80
2022/08/13 05:39:21;;;;;;;8.57;3.80;;;17.30;25.10;;;;;;6188362;23;20438;-79
2022/08/13 05:41:49;;;;;;;13.23;3.73;;;17.80;23.30;;;;;;6198151;23;20412;-79
2022/08/13 05:44:16;;;;;;;7.67;3.63;;;18.50;21.80;;;;;;6188421;23;20770;-79
2022/08/13 05:46:42;;;;;;;8.13;3.70;;;18.90;19.90;;;;;;6188563;23;20414;-79
2022/08/13 05:49:09;;;;;;;8.20;4.17;;;19.40;19.30;;;;;;6188655;23;20729;-78
2022/08/13 05:51:37;;;;;;;8.60;3.77;;;19.90;16.90;;;;;;6188581;23;20416;-79
2022/08/13 05:54:04;;;;;;;12.93;4.20;;;20.40;14.50;;;;;;6187341;23;20779;-79
2022/08/13 05:56:35;;;;;;;6.73;3.30;;;20.70;12.70;;;;;;6188087;23;20424;-79
2022/08/13 05:59:02;;;;;;;12.53;3.27;;;21.20;11.00;;;;;;6187690;23;20429;-78
2022/08/13 06:04:18;;;;;;;5.87;3.03;;;21.90;8.80;;;;;;6187509;23;21050;-79
2022/08/13 06:06:47;;;;;;;7.47;3.20;;;22.30;6.20;;;;;;6188119;23;20401;-79
2022/08/13 06:09:14;;;;;;;5.63;2.90;;;22.60;6.40;;;;;;6188125;23;20384;-79
2022/08/13 06:11:41;;;;;;;6.20;2.87;;;22.70;4.20;;;;;;6187853;23;20420;-79
2022/08/13 06:14:08;;;;;;;6.00;3.33;;;23.00;2.70;;;;;;6188158;23;20442;-79
2022/08/13 06:16:37;;;;;;;8.20;3.13;;;23.30;1.00;;;;;;6188283;23;20422;-79
2022/08/13 06:19:05;;;;;;;7.93;3.17;;;23.10;1.00;;;;;;6188680;23;20443;-79
2022/08/13 06:21:32;;;;;;;8.50;3.27;;;23.30;1.00;;;;;;6188540;23;20463;-79
2022/08/13 06:24:05;;;;;;;8.23;2.70;;;23.50;1.00;;;;;;6187973;23;20459;-79
2022/08/13 06:26:32;;;;;;;6.60;2.93;;;23.70;1.00;;;;;;6187457;23;20405;-80
2022/08/13 06:29:01;;;;;;;6.03;3.33;;;23.80;1.00;;;;;;6188191;23;20409;-80
2022/08/13 06:31:31;;;;;;;7.67;4.00;;;23.80;1.00;;;;;;6188239;23;20420;-79
2022/08/13 06:33:57;;;;;;;6.30;2.83;;;23.90;1.00;;;;;;6188033;23;20439;-80
2022/08/13 06:36:29;;;;;;;6.93;3.43;;;23.80;1.00;;;;;;6188864;23;20398;-79
2022/08/13 06:38:59;;;;;;;6.70;3.10;;;23.90;1.00;;;;;;6188783;23;20511;-80
2022/08/13 06:41:29;;;;;;;10.10;3.00;;;23.60;1.00;;;;;;6188708;23;20748;-80
2022/08/13 06:43:57;;;;;;;7.83;2.80;;;23.60;1.00;;;;;;6188970;23;20441;-81
2022/08/13 06:46:28;;;;;;;7.97;3.07;;;23.50;1.00;;;;;;6188693;23;20802;-82
2022/08/13 06:48:58;;;;;;;9.93;3.23;;;23.40;1.00;;;;;;6187980;23;20407;-82
2022/08/13 06:51:37;;;;;;;7.73;3.40;;;23.40;1.00;;;;;;6188549;23;20380;-82
2022/08/13 06:54:26;;;;;;;7.60;3.00;;;23.30;1.00;;;;;;6187180;23;20484;-81
2022/08/13 06:56:57;;;;;;;5.63;2.50;;;23.30;1.00;;;;;;6187158;23;20439;-83
2022/08/13 06:59:39;;;;;;;6.00;2.87;;;23.10;1.00;;;;;;6187502;23;20425;-82
2022/08/13 07:03:11;;;;;;;7.23;3.10;;;23.10;1.00;;;;;;6160489;23;20420;-81
2022/08/13 07:05:54;;;;;;;8.43;3.30;;;23.10;1.00;;;;;;6187427;23;20921;-82
2022/08/13 07:08:22;;;;;;;8.20;3.17;;;23.10;1.00;;;;;;6187236;23;20426;-81
2022/08/13 07:11:25;;;;;;;11.00;2.93;;;23.00;1.00;;;;;;6186088;23;20415;-81
2022/08/13 07:14:07;;;;;;;9.77;3.20;;;23.20;1.00;;;;;;6186747;23;20435;-82
2022/08/13 07:16:44;;;;;;;5.40;2.53;;;23.30;1.00;;;;;;6186511;23;20431;-81
2022/08/13 07:19:12;;;;;;;7.43;2.80;;;23.30;1.00;;;;;;6186133;23;20451;-80
2022/08/13 07:21:41;;;;;;;6.07;2.63;;;23.50;1.00;;;;;;6186062;23;20454;-81
2022/08/13 07:24:10;;;;;;;8.10;2.30;;;23.60;1.00;;;;;;6185714;23;20934;-81
2022/08/13 07:26:37;;;;;;;5.43;2.30;;;23.80;1.00;;;;;;6186118;23;20424;-81
2022/08/13 07:29:09;;;;;;;4.90;2.20;;;23.90;1.00;;;;;;6186399;23;20438;-81
2022/08/13 07:31:44;;;;;;;6.57;2.53;;;24.00;1.00;;;;;;6186438;23;20488;-80
2022/08/13 07:34:11;;;;;;;7.77;2.40;;;24.20;1.00;;;;;;6186925;23;20419;-83
2022/08/13 07:36:40;;;;;;;5.97;2.40;;;24.30;1.00;;;;;;6189050;23;20414;-83
2022/08/13 07:39:10;;;;;;;6.80;2.20;;;24.40;1.00;;;;;;6188540;23;20416;-85
2022/08/13 07:41:41;;;;;;;5.73;2.10;;;24.50;1.00;;;;;;6190113;23;20400;-85
2022/08/13 07:44:12;;;;;;;6.50;2.70;;;24.60;1.00;;;;;;6191482;23;20440;-83
2022/08/13 07:46:42;;;;;;;8.20;2.20;;;24.80;1.00;;;;;;6189752;23;20410;-83
2022/08/13 07:49:10;;;;;;;5.20;2.50;;;25.00;1.00;;;;;;6188572;23;20973;-84
2022/08/13 07:51:38;;;;;;;5.30;2.10;;;25.00;1.00;;;;;;6187632;23;20412;-82
2022/08/13 07:54:06;;;;;;;7.97;2.30;;;25.20;1.00;;;;;;6188366;23;20538;-83
2022/08/13 07:56:34;;;;;;;5.90;2.20;;;25.30;1.00;;;;;;6188836;23;20788;-83
2022/08/13 07:59:02;;;;;;;5.57;2.07;;;25.40;1.00;;;;;;6190344;23;20409;-83
2022/08/13 08:01:33;;;;;;;5.60;2.10;;;25.60;1.00;;;;;;6191171;23;20926;-84
2022/08/13 08:04:03;;;;;;;4.57;1.80;;;25.80;1.00;;;;;;6187834;23;20433;-84
2022/08/13 08:06:30;;;;;;;4.60;1.90;;;26.10;1.00;;;;;;6188085;23;20413;-83
2022/08/13 08:08:58;;;;;;;5.10;2.00;;;26.50;1.00;;;;;;6187594;23;20490;-83
2022/08/13 08:14:10;;;;;;;7.83;1.93;;;27.40;1.00;;;;;;6187753;23;20423;-84
2022/08/13 08:16:44;;;;;;;8.03;2.40;;;27.90;1.00;;;;;;6190989;23;20476;-83
2022/08/13 08:19:13;;;;;;;4.70;1.87;;;28.10;1.00;;;;;;6189418;23;20455;-84
2022/08/13 08:21:41;;;;;;;5.20;2.00;;;28.20;1.00;;;;;;6189774;23;20391;-84
2022/08/13 08:24:08;;;;;;;8.00;2.10;;;28.80;1.00;;;;;;6193000;23;20407;-85
2022/08/13 08:26:36;;;;;;;5.27;2.20;;;29.10;1.00;;;;;;6191515;23;20412;-84
2022/08/13 08:29:09;;;;;;;7.57;2.10;;;29.30;1.00;;;;;;6191182;23;20474;-83
2022/08/13 08:31:40;;;;;;;4.80;1.93;;;29.60;1.00;;;;;;6188965;23;20397;-84
2022/08/13 08:34:08;;;;;;;6.93;1.80;;;30.00;1.00;;;;;;6192744;23;20411;-84
2022/08/13 08:36:39;;;;;;;4.60;1.80;;;29.90;1.00;;;;;;6190432;23;20387;-83
2022/08/13 08:44:41;;;;;;;6.03;1.90;;;30.40;1.00;;;;;;6204425;23;20399;-83
2022/08/13 08:47:10;;;;;;;8.20;2.07;;;30.60;1.00;;;;;;6209789;23;20720;-84
2022/08/13 08:49:39;;;;;;;6.40;2.03;;;30.80;1.00;;;;;;6196407;23;20415;-84
2022/08/13 08:52:10;;;;;;;9.00;1.67;;;30.90;1.00;;;;;;6198679;23;20432;-84
2022/08/13 08:54:42;;;;;;;5.33;2.10;;;31.20;1.00;;;;;;6203935;23;20512;-84
2022/08/13 08:57:09;;;;;;;8.53;1.77;;;31.20;1.00;;;;;;6211654;23;20443;-84
2022/08/13 08:59:39;;;;;;;5.20;1.53;;;31.70;1.00;;;;;;6198802;23;20407;-84
2022/08/13 09:02:19;;;;;;;6.00;1.87;;;31.90;1.00;;;;;;6196944;23;20418;-83
2022/08/13 09:04:54;;;;;;;6.47;1.70;;;31.90;1.00;;;;;;6190973;23;20988;-83
2022/08/13 09:07:24;;;;;;;4.23;1.37;;;31.70;1.00;;;;;;6195614;23;20397;-84
2022/08/13 09:09:55;;;;;;;5.20;1.67;;;31.80;1.00;;;;;;6193681;23;20980;-84
2022/08/13 09:12:25;;;;;;;4.50;1.43;;;32.50;1.00;;;;;;6195533;23;20397;-84
2022/08/13 09:14:52;;;;;;;5.43;2.20;;;32.20;1.00;;;;;;6196193;23;20412;-83
2022/08/13 09:17:21;;;;;;;5.93;1.70;;;32.20;1.00;;;;;;6194973;23;20721;-84
2022/08/13 09:19:48;;;;;;;4.60;1.60;;;32.30;1.00;;;;;;6190990;23;20392;-84
2022/08/13 09:22:20;;;;;;;7.87;2.10;;;32.70;1.00;;;;;;6200901;23;20391;-84
2022/08/13 09:24:46;;;;;;;5.97;1.50;;;33.10;1.00;;;;;;6195745;23;20497;-85
2022/08/13 09:27:17;;;;;;;7.80;2.93;;;33.40;1.00;;;;;;6208231;23;20432;-86
2022/08/13 09:29:50;;;;;;;5.20;1.97;;;33.00;1.00;;;;;;6211660;23;20403;-84
2022/08/13 09:32:21;;;;;;;4.80;1.50;;;33.10;1.00;;;;;;6211710;23;20375;-85
2022/08/13 09:34:48;;;;;;;5.20;1.97;;;33.10;1.00;;;;;;6206391;23;20414;-87
2022/08/13 09:37:19;;;;;;;4.60;1.60;;;33.20;1.00;;;;;;6208108;23;20372;-85
2022/08/13 09:39:53;;;;;;;4.30;1.70;;;33.20;1.00;;;;;;6212613;23;20450;-85
2022/08/13 09:42:25;;;;;;;6.60;2.00;;;33.20;1.00;;;;;;6208992;23;20430;-83
2022/08/13 09:44:54;;;;;;;6.40;2.10;;;33.30;1.00;;;;;;6201733;23;20197;-83
2022/08/13 09:47:23;;;;;;;5.60;1.40;;;33.90;1.00;;;;;;6198785;23;20395;-83
2022/08/13 09:49:50;;;;;;;9.10;1.77;;;34.00;1.00;;;;;;6210054;23;20437;-84
2022/08/13 09:52:17;;;;;;;8.73;1.93;;;34.10;1.00;;;;;;6194062;23;20454;-83
2022/08/13 09:54:44;;;;;;;4.53;1.80;;;33.90;1.00;;;;;;6200235;23;20520;-83
2022/08/13 09:57:11;;;;;;;7.63;2.00;;;34.20;1.00;;;;;;6201953;23;20453;-83
2022/08/13 09:59:38;;;;;;;9.10;2.17;;;34.10;1.00;;;;;;6199391;23;20379;-84
2022/08/13 10:02:09;;;;;;;6.20;1.63;;;33.80;1.00;;;;;;6195198;23;20387;-86
2022/08/13 10:04:42;;;;;;;5.03;1.77;;;34.60;1.00;;;;;;6194171;23;20433;-86
2022/08/13 10:07:14;;;;;;;4.40;1.73;;;35.10;1.00;;;;;;6197417;23;20452;-87
2022/08/13 10:09:41;;;;;;;4.77;1.63;;;34.60;1.00;;;;;;6200238;23;20371;-83
2022/08/13 10:12:10;;;;;;;6.30;1.90;;;34.70;1.00;;;;;;6202562;23;20409;-83
2022/08/13 10:14:37;;;;;;;5.53;1.70;;;35.00;1.00;;;;;;6204168;23;20436;-83
2022/08/13 10:17:04;;;;;;;6.83;1.90;;;35.20;1.00;;;;;;6206387;23;20404;-85
2022/08/13 10:19:31;;;;;;;11.17;1.87;;;34.80;1.00;;;;;;6193796;23;20426;-85
2022/08/13 10:21:59;;;;;;;5.80;2.10;;;34.60;1.00;;;;;;6188338;23;20449;-86
2022/08/13 10:24:26;;;;;;;4.50;1.70;;;35.20;1.00;;;;;;6190389;23;20428;-85
2022/08/13 10:26:53;;;;;;;13.73;2.10;;;35.70;1.00;;;;;;6192057;23;20387;-86
2022/08/13 10:29:19;;;;;;;4.77;1.60;;;35.30;1.00;;;;;;6190271;23;20418;-85
2022/08/13 10:31:46;;;;;;;4.50;1.90;;;34.90;1.00;;;;;;6190246;23;20475;-84
2022/08/13 10:34:13;;;;;;;7.60;1.70;;;35.70;1.00;;;;;;6189060;23;20407;-84
2022/08/13 10:36:43;;;;;;;4.40;1.60;;;35.80;1.00;;;;;;6191594;23;20439;-85
2022/08/13 10:39:11;;;;;;;4.60;1.77;;;36.20;1.00;;;;;;6193588;23;20383;-84
2022/08/13 10:41:37;;;;;;;8.57;4.90;;;36.70;1.00;;;;;;6193239;23;20751;-84
2022/08/13 10:44:04;;;;;;;7.97;3.90;;;36.60;1.00;;;;;;6189806;23;20991;-84
2022/08/13 10:46:31;;;;;;;7.60;3.13;;;36.80;1.00;;;;;;6187485;23;20388;-85
2022/08/13 10:48:58;;;;;;;8.60;4.20;;;37.10;1.00;;;;;;6187686;23;20731;-85
2022/08/13 10:51:26;;;;;;;12.07;6.63;;;36.80;1.00;;;;;;6187517;23;20801;-85
2022/08/13 10:53:58;;;;;;;6.40;3.03;;;37.30;1.00;;;;;;6188155;23;20444;-85
2022/08/13 10:56:28;;;;;;;5.93;2.73;;;37.00;1.00;;;;;;6192470;23;20395;-84
2022/08/13 10:58:56;;;;;;;5.00;2.40;;;36.90;1.00;;;;;;6195519;23;20575;-86
2022/08/13 11:01:26;;;;;;;6.60;3.40;;;37.30;1.00;;;;;;6192582;23;20536;-83
2022/08/13 11:03:55;;;;;;;7.37;2.50;;;37.60;1.00;;;;;;6192126;23;20501;-84
2022/08/13 11:06:27;;;;;;;5.40;2.23;;;37.70;1.00;;;;;;6192482;23;20389;-84
2022/08/13 11:08:57;;;;;;;16.60;2.77;;;37.10;1.00;;;;;;6194329;23;20405;-85
2022/08/13 11:11:26;;;;;;;5.90;2.07;;;36.00;1.00;;;;;;6194636;23;20443;-85
2022/08/13 11:13:53;;;;;;;6.10;2.20;;;35.20;1.00;;;;;;6193932;23;20516;-85
2022/08/13 11:19:20;;;;;;;4.70;1.70;;;35.30;1.00;;;;;;6192452;23;20435;-86
2022/08/13 11:21:47;;;;;;;4.67;1.90;;;35.20;1.00;;;;;;6192784;23;20395;-85
2022/08/13 11:24:14;;;;;;;6.40;1.67;;;35.20;1.00;;;;;;6191572;23;20416;-86
2022/08/13 11:26:42;;;;;;;4.50;1.53;;;34.40;1.00;;;;;;6191608;23;20413;-84
2022/08/13 11:29:09;;;;;;;4.67;1.57;;;34.90;1.00;;;;;;6191666;23;20399;-85
2022/08/13 11:31:36;;;;;;;5.87;1.83;;;35.20;1.00;;;;;;6192390;23;20409;-85
2022/08/13 11:34:02;;;;;;;5.40;1.77;;;35.80;1.00;;;;;;6193993;23;20439;-84
2022/08/13 11:36:29;;;;;;;6.37;1.63;;;35.80;1.00;;;;;;6193081;23;20398;-84
2022/08/13 11:38:56;;;;;;;5.10;1.60;;;35.80;1.00;;;;;;6191870;23;20423;-85
2022/08/13 11:41:23;;;;;;;4.63;1.60;;;36.70;1.00;;;;;;6196600;23;20407;-84
2022/08/13 11:43:52;;;;;;;5.27;1.60;;;37.50;1.00;;;;;;6194488;23;20403;-83
2022/08/13 11:46:19;;;;;;;4.40;1.67;;;37.80;1.00;;;;;;6193459;23;20383;-82
2022/08/13 11:48:46;;;;;;;5.03;1.40;;;38.10;1.00;;;;;;6193224;23;20420;-83
2022/08/13 11:51:13;;;;;;;4.70;1.50;;;38.00;1.00;;;;;;6193998;23;20383;-83
2022/08/13 11:53:40;;;;;;;5.70;1.47;;;38.90;1.00;;;;;;6193905;23;20939;-83
2022/08/13 11:56:07;;;;;;;4.70;1.83;;;39.20;1.00;;;;;;6205509;23;20394;-83
2022/08/13 11:58:34;;;;;;;5.33;1.63;;;38.60;1.00;;;;;;6194879;23;20408;-83
2022/08/13 12:01:06;;;;;;;4.40;1.50;;;39.00;1.00;;;;;;6194932;23;20933;-83
2022/08/13 12:03:34;;;;;;;5.30;1.80;;;39.40;1.00;;;;;;6194721;23;20440;-83
2022/08/13 12:06:01;;;;;;;5.40;1.57;;;39.10;1.00;;;;;;6194765;23;20412;-83
2022/08/13 12:08:28;;;;;;;4.93;1.53;;;37.40;1.00;;;;;;6193783;23;20412;-83
2022/08/13 12:10:55;;;;;;;5.80;1.73;;;37.00;1.00;;;;;;6193188;23;20476;-83
2022/08/13 12:13:21;;;;;;;4.37;1.63;;;37.60;1.00;;;;;;6196233;23;20417;-83
2022/08/13 12:15:48;;;;;;;8.40;1.47;;;38.10;1.00;;;;;;6195867;23;20395;-83
2022/08/13 12:18:18;;;;;;;5.50;1.87;;;39.00;1.00;;;;;;6194370;23;20483;-83
2022/08/13 12:20:45;;;;;;;5.00;1.70;;;38.80;1.00;;;;;;6193614;23;20418;-83
2022/08/13 12:23:12;;;;;;;6.00;1.57;;;38.60;1.00;;;;;;6194113;23;20453;-83
2022/08/13 12:25:39;;;;;;;4.20;1.53;;;38.30;1.00;;;;;;6196937;23;20893;-83
2022/08/13 12:28:11;;;;;;;7.27;1.47;;;39.20;1.00;;;;;;6196519;23;21002;-83
2022/08/13 12:30:37;;;;;;;4.50;1.60;;;39.10;1.00;;;;;;6195872;23;20385;-83
2022/08/13 12:33:05;;;;;;;5.63;1.67;;;38.10;1.00;;;;;;6197114;23;20435;-83
2022/08/13 12:35:33;;;;;;;5.07;1.43;;;37.90;1.00;;;;;;6194863;23;20391;-83
2022/08/13 12:38:00;;;;;;;6.13;1.60;;;38.20;1.00;;;;;;6192814;23;20443;-83
2022/08/13 12:40:27;;;;;;;8.00;2.07;;;37.60;1.00;;;;;;6194117;23;20450;-83
2022/08/13 12:42:53;;;;;;;7.17;1.60;;;37.60;1.00;;;;;;6193190;23;20388;-84
2022/08/13 12:45:20;;;;;;;4.60;1.40;;;37.50;1.00;;;;;;6193423;23;20412;-83
2022/08/13 12:47:47;;;;;;;4.37;1.67;;;37.50;1.00;;;;;;6194960;23;20997;-83
2022/08/13 12:50:13;;;;;;;5.60;1.40;;;38.00;1.00;;;;;;6194841;23;20722;-83
2022/08/13 12:52:41;;;;;;;7.60;1.50;;;39.00;1.00;;;;;;6196025;23;20416;-83
2022/08/13 12:55:09;;;;;;;4.53;1.50;;;39.10;1.00;;;;;;6194561;23;20419;-84
2022/08/13 12:57:37;;;;;;;4.30;1.70;;;38.90;1.00;;;;;;6195377;23;20424;-83
2022/08/13 13:00:06;;;;;;;4.30;1.43;;;40.10;1.00;;;;;;6193949;23;20416;-83
2022/08/13 13:02:34;;;;;;;5.27;1.63;;;40.80;1.00;;;;;;6192862;23;20780;-83
2022/08/13 13:05:01;;;;;;;6.00;1.70;;;40.80;1.00;;;;;;6194809;23;20502;-83
2022/08/13 13:07:28;;;;;;;4.10;1.30;;;41.50;1.00;;;;;;6194788;23;20415;-83
2022/08/13 13:09:59;;;;;;;5.80;1.60;;;41.00;1.00;;;;;;6191663;23;20821;-83
2022/08/13 13:12:25;;;;;;;4.90;1.57;;;40.40;1.00;;;;;;6205505;23;20442;-83
2022/08/13 13:14:52;;;;;;;5.07;1.60;;;41.50;1.00;;;;;;6196459;23;20463;-84
2022/08/13 13:17:19;;;;;;;4.50;1.60;;;40.60;1.00;;;;;;6194720;23;20914;-83
2022/08/13 13:19:47;;;;;;;4.47;1.70;;;39.60;1.00;;;;;;6195564;23;20420;-84
2022/08/13 13:22:14;;;;;;;5.90;1.77;;;38.90;1.00;;;;;;6194342;23;20466;-83
2022/08/13 13:24:41;;;;;;;7.23;2.00;;;38.10;1.00;;;;;;6196257;23;20475;-84
2022/08/13 13:27:09;;;;;;;5.40;1.73;;;38.50;1.00;;;;;;6195780;23;20387;-83